sensor_id;sensor_type;location;lat;lon;timestamp;P1;durP1;ratioP1;P2;durP2;ratioP2
15289;SDS011;7746;50.554;7.108;2023-03-01T00:00:54;1.27;;;1.17;;
15289;SDS011;7746;50.554;7.108;2023-03-01T00:03:21;1.13;;;1.00;;
15289;SDS011;7746;50.554;7.108;2023-03-01T00:05:49;1.53;;;1.13;;
15289;SDS011;7746;50.554;7.108;2023-03-01T00:08:17;1.00;;;1.00;;
15289;SDS011;7746;50.554;7.108;2023-03-01T00:10:44;0.93;;;0.90;;
15289;SDS011;7746;50.554;7.108;2023-03-01T00:13:12;1.10;;;1.00;;
15289;SDS011;7746;50.554;7.108;2023-03-01T00:15:39;1.37;;;1.10;;
15289;SDS011;7746;50.554;7.108;2023-03-01T00:18:06;0.97;;;0.93;;
15289;SDS011;7746;50.554;7.108;2023-03-01T00:20:33;1.50;;;1.07;;
15289;SDS011;7746;50.554;7.108;2023-03-01T00:23:01;1.17;;;1.00;;
15289;SDS011;7746;50.554;7.108;2023-03-01T00:25:29;1.10;;;1.00;;
15289;SDS011;7746;50.554;7.108;2023-03-01T00:27:57;1.37;;;1.20;;
15289;SDS011;7746;50.554;7.108;2023-03-01T00:30:24;1.30;;;1.10;;
15289;SDS011;7746;50.554;7.108;2023-03-01T00:32:51;0.90;;;0.90;;
15289;SDS011;7746;50.554;7.108;2023-03-01T00:35:18;1.07;;;1.00;;
15289;SDS011;7746;50.554;7.108;2023-03-01T00:37:47;0.90;;;0.90;;
15289;SDS011;7746;50.554;7.108;2023-03-01T00:40:18;1.30;;;1.07;;
15289;SDS011;7746;50.554;7.108;2023-03-01T00:42:46;0.97;;;0.90;;
15289;SDS011;7746;50.554;7.108;2023-03-01T00:45:14;1.10;;;1.00;;
15289;SDS011;7746;50.554;7.108;2023-03-01T00:47:41;1.07;;;1.00;;
15289;SDS011;7746;50.554;7.108;2023-03-01T00:50:09;1.40;;;1.10;;
15289;SDS011;7746;50.554;7.108;2023-03-01T00:52:36;0.83;;;0.83;;
15289;SDS011;7746;50.554;7.108;2023-03-01T00:55:04;1.00;;;1.00;;
15289;SDS011;7746;50.554;7.108;2023-03-01T00:57:31;1.10;;;1.00;;
15289;SDS011;7746;50.554;7.108;2023-03-01T01:00:00;1.13;;;1.00;;
15289;SDS011;7746;50.554;7.108;2023-03-01T01:02:28;0.90;;;0.90;;
15289;SDS011;7746;50.554;7.108;2023-03-01T01:04:55;0.93;;;0.90;;
15289;SDS011;7746;50.554;7.108;2023-03-01T01:07:22;0.80;;;0.80;;
15289;SDS011;7746;50.554;7.108;2023-03-01T01:09:49;0.87;;;0.87;;
15289;SDS011;7746;50.554;7.108;2023-03-01T01:12:16;0.77;;;0.77;;
15289;SDS011;7746;50.554;7.108;2023-03-01T01:14:43;1.03;;;0.97;;
15289;SDS011;7746;50.554;7.108;2023-03-01T01:17:12;1.23;;;1.13;;
15289;SDS011;7746;50.554;7.108;2023-03-01T01:19:39;1.13;;;1.03;;
15289;SDS011;7746;50.554;7.108;2023-03-01T01:22:06;1.00;;;1.00;;
15289;SDS011;7746;50.554;7.108;2023-03-01T01:24:33;1.27;;;1.17;;
15289;SDS011;7746;50.554;7.108;2023-03-01T01:27:00;1.00;;;1.00;;
15289;SDS011;7746;50.554;7.108;2023-03-01T01:29:28;0.87;;;0.87;;
15289;SDS011;7746;50.554;7.108;2023-03-01T01:31:55;1.00;;;1.00;;
15289;SDS011;7746;50.554;7.108;2023-03-01T01:34:23;0.87;;;0.87;;
15289;SDS011;7746;50.554;7.108;2023-03-01T01:36:51;0.90;;;0.90;;
15289;SDS011;7746;50.554;7.108;2023-03-01T01:39:19;0.93;;;0.90;;
15289;SDS011;7746;50.554;7.108;2023-03-01T01:41:46;0.83;;;0.83;;
15289;SDS011;7746;50.554;7.108;2023-03-01T01:44:15;1.17;;;1.07;;
15289;SDS011;7746;50.554;7.108;2023-03-01T01:46:43;0.90;;;0.90;;
15289;SDS011;7746;50.554;7.108;2023-03-01T01:49:18;0.90;;;0.90;;
15289;SDS011;7746;50.554;7.108;2023-03-01T01:51:48;1.23;;;1.10;;
15289;SDS011;7746;50.554;7.108;2023-03-01T01:54:17;0.80;;;0.80;;
15289;SDS011;7746;50.554;7.108;2023-03-01T01:56:46;0.87;;;0.87;;
15289;SDS011;7746;50.554;7.108;2023-03-01T01:59:15;1.00;;;1.00;;
15289;SDS011;7746;50.554;7.108;2023-03-01T02:01:42;0.93;;;0.93;;
15289;SDS011;7746;50.554;7.108;2023-03-01T02:04:09;0.97;;;0.97;;
15289;SDS011;7746;50.554;7.108;2023-03-01T02:06:38;0.80;;;0.80;;
15289;SDS011;7746;50.554;7.108;2023-03-01T02:09:08;0.90;;;0.90;;
15289;SDS011;7746;50.554;7.108;2023-03-01T02:11:38;0.87;;;0.87;;
15289;SDS011;7746;50.554;7.108;2023-03-01T02:14:05;1.20;;;1.10;;
15289;SDS011;7746;50.554;7.108;2023-03-01T02:16:32;0.90;;;0.90;;
15289;SDS011;7746;50.554;7.108;2023-03-01T02:19:00;1.20;;;1.10;;
15289;SDS011;7746;50.554;7.108;2023-03-01T02:21:30;1.23;;;1.13;;
15289;SDS011;7746;50.554;7.108;2023-03-01T02:24:10;1.03;;;1.00;;
15289;SDS011;7746;50.554;7.108;2023-03-01T02:26:46;1.30;;;1.20;;
15289;SDS011;7746;50.554;7.108;2023-03-01T02:29:16;1.00;;;1.00;;
15289;SDS011;7746;50.554;7.108;2023-03-01T02:31:43;1.27;;;1.17;;
15289;SDS011;7746;50.554;7.108;2023-03-01T02:34:12;1.23;;;1.17;;
15289;SDS011;7746;50.554;7.108;2023-03-01T02:36:41;0.90;;;0.90;;
15289;SDS011;7746;50.554;7.108;2023-03-01T02:39:11;1.13;;;1.13;;
15289;SDS011;7746;50.554;7.108;2023-03-01T02:41:39;1.13;;;1.07;;
15289;SDS011;7746;50.554;7.108;2023-03-01T02:44:07;1.10;;;1.10;;
15289;SDS011;7746;50.554;7.108;2023-03-01T02:46:41;1.00;;;1.00;;
15289;SDS011;7746;50.554;7.108;2023-03-01T02:49:16;1.20;;;1.10;;
15289;SDS011;7746;50.554;7.108;2023-03-01T02:51:46;0.90;;;0.90;;
15289;SDS011;7746;50.554;7.108;2023-03-01T02:54:16;1.17;;;1.10;;
15289;SDS011;7746;50.554;7.108;2023-03-01T02:56:44;0.87;;;0.87;;
15289;SDS011;7746;50.554;7.108;2023-03-01T02:59:13;1.07;;;1.07;;
15289;SDS011;7746;50.554;7.108;2023-03-01T03:01:42;1.07;;;1.07;;
15289;SDS011;7746;50.554;7.108;2023-03-01T03:04:10;1.17;;;1.17;;
15289;SDS011;7746;50.554;7.108;2023-03-01T03:06:37;1.07;;;1.07;;
15289;SDS011;7746;50.554;7.108;2023-03-01T03:09:05;1.17;;;1.17;;
15289;SDS011;7746;50.554;7.108;2023-03-01T03:11:33;1.07;;;1.07;;
15289;SDS011;7746;50.554;7.108;2023-03-01T03:14:01;1.00;;;1.00;;
15289;SDS011;7746;50.554;7.108;2023-03-01T03:16:29;1.00;;;1.00;;
15289;SDS011;7746;50.554;7.108;2023-03-01T03:18:57;1.00;;;1.00;;
15289;SDS011;7746;50.554;7.108;2023-03-01T03:21:30;0.90;;;0.90;;
15289;SDS011;7746;50.554;7.108;2023-03-01T03:23:57;0.90;;;0.90;;
15289;SDS011;7746;50.554;7.108;2023-03-01T03:26:24;0.97;;;0.97;;
15289;SDS011;7746;50.554;7.108;2023-03-01T03:28:52;1.10;;;1.10;;
15289;SDS011;7746;50.554;7.108;2023-03-01T03:31:19;1.00;;;1.00;;
15289;SDS011;7746;50.554;7.108;2023-03-01T03:33:46;0.93;;;0.93;;
15289;SDS011;7746;50.554;7.108;2023-03-01T03:36:16;0.97;;;0.97;;
15289;SDS011;7746;50.554;7.108;2023-03-01T03:38:43;1.00;;;1.00;;
15289;SDS011;7746;50.554;7.108;2023-03-01T03:41:11;1.00;;;1.00;;
15289;SDS011;7746;50.554;7.108;2023-03-01T03:43:38;1.03;;;1.03;;
15289;SDS011;7746;50.554;7.108;2023-03-01T03:46:07;0.87;;;0.87;;
15289;SDS011;7746;50.554;7.108;2023-03-01T03:48:35;1.00;;;1.00;;
15289;SDS011;7746;50.554;7.108;2023-03-01T03:51:03;1.00;;;1.00;;
15289;SDS011;7746;50.554;7.108;2023-03-01T03:53:32;1.10;;;1.10;;
15289;SDS011;7746;50.554;7.108;2023-03-01T03:55:59;1.10;;;1.10;;
15289;SDS011;7746;50.554;7.108;2023-03-01T03:58:26;0.87;;;0.87;;
15289;SDS011;7746;50.554;7.108;2023-03-01T04:00:54;1.30;;;1.20;;
15289;SDS011;7746;50.554;7.108;2023-03-01T04:03:22;1.00;;;1.00;;
15289;SDS011;7746;50.554;7.108;2023-03-01T04:05:50;1.17;;;1.10;;
15289;SDS011;7746;50.554;7.108;2023-03-01T04:08:17;1.10;;;1.10;;
15289;SDS011;7746;50.554;7.108;2023-03-01T04:10:48;1.07;;;1.00;;
15289;SDS011;7746;50.554;7.108;2023-03-01T04:13:16;1.00;;;1.00;;
15289;SDS011;7746;50.554;7.108;2023-03-01T04:15:44;1.30;;;1.20;;
15289;SDS011;7746;50.554;7.108;2023-03-01T04:18:12;1.00;;;1.00;;
15289;SDS011;7746;50.554;7.108;2023-03-01T04:20:40;0.90;;;0.90;;
15289;SDS011;7746;50.554;7.108;2023-03-01T04:23:08;0.93;;;0.93;;
15289;SDS011;7746;50.554;7.108;2023-03-01T04:25:41;1.10;;;1.10;;
15289;SDS011;7746;50.554;7.108;2023-03-01T04:28:10;1.00;;;1.00;;
15289;SDS011;7746;50.554;7.108;2023-03-01T04:30:37;1.00;;;1.00;;
15289;SDS011;7746;50.554;7.108;2023-03-01T04:33:06;1.17;;;1.17;;
15289;SDS011;7746;50.554;7.108;2023-03-01T04:35:34;1.10;;;1.10;;
15289;SDS011;7746;50.554;7.108;2023-03-01T04:38:01;1.23;;;1.17;;
15289;SDS011;7746;50.554;7.108;2023-03-01T04:40:29;1.00;;;1.00;;
15289;SDS011;7746;50.554;7.108;2023-03-01T04:42:56;1.07;;;1.07;;
15289;SDS011;7746;50.554;7.108;2023-03-01T04:45:24;1.40;;;1.30;;
15289;SDS011;7746;50.554;7.108;2023-03-01T04:47:52;1.20;;;1.20;;
15289;SDS011;7746;50.554;7.108;2023-03-01T04:50:23;1.17;;;1.10;;
15289;SDS011;7746;50.554;7.108;2023-03-01T04:52:50;1.27;;;1.17;;
15289;SDS011;7746;50.554;7.108;2023-03-01T04:55:18;0.97;;;0.97;;
15289;SDS011;7746;50.554;7.108;2023-03-01T04:57:45;1.10;;;1.10;;
15289;SDS011;7746;50.554;7.108;2023-03-01T05:00:13;0.97;;;0.97;;
15289;SDS011;7746;50.554;7.108;2023-03-01T05:02:49;1.23;;;1.17;;
15289;SDS011;7746;50.554;7.108;2023-03-01T05:05:18;1.27;;;1.17;;
15289;SDS011;7746;50.554;7.108;2023-03-01T05:07:46;1.30;;;1.20;;
15289;SDS011;7746;50.554;7.108;2023-03-01T05:10:13;1.13;;;1.07;;
15289;SDS011;7746;50.554;7.108;2023-03-01T05:12:40;1.23;;;1.13;;
15289;SDS011;7746;50.554;7.108;2023-03-01T05:15:07;1.00;;;1.00;;
15289;SDS011;7746;50.554;7.108;2023-03-01T05:17:35;1.03;;;0.97;;
15289;SDS011;7746;50.554;7.108;2023-03-01T05:20:03;1.20;;;1.10;;
15289;SDS011;7746;50.554;7.108;2023-03-01T05:22:33;1.30;;;1.23;;
15289;SDS011;7746;50.554;7.108;2023-03-01T05:25:00;1.07;;;1.07;;
15289;SDS011;7746;50.554;7.108;2023-03-01T05:27:27;1.27;;;1.17;;
15289;SDS011;7746;50.554;7.108;2023-03-01T05:29:55;1.30;;;1.20;;
15289;SDS011;7746;50.554;7.108;2023-03-01T05:32:22;1.10;;;1.10;;
15289;SDS011;7746;50.554;7.108;2023-03-01T05:34:49;1.23;;;1.10;;
15289;SDS011;7746;50.554;7.108;2023-03-01T05:37:18;1.40;;;1.30;;
15289;SDS011;7746;50.554;7.108;2023-03-01T05:39:45;1.30;;;1.20;;
15289;SDS011;7746;50.554;7.108;2023-03-01T05:42:15;1.10;;;1.10;;
15289;SDS011;7746;50.554;7.108;2023-03-01T05:44:43;1.30;;;1.20;;
15289;SDS011;7746;50.554;7.108;2023-03-01T05:47:10;1.00;;;1.00;;
15289;SDS011;7746;50.554;7.108;2023-03-01T05:49:37;1.30;;;1.20;;
15289;SDS011;7746;50.554;7.108;2023-03-01T05:52:04;1.30;;;1.20;;
15289;SDS011;7746;50.554;7.108;2023-03-01T05:54:33;1.47;;;1.37;;
15289;SDS011;7746;50.554;7.108;2023-03-01T05:57:00;0.90;;;0.90;;
15289;SDS011;7746;50.554;7.108;2023-03-01T05:59:27;1.23;;;1.20;;
15289;SDS011;7746;50.554;7.108;2023-03-01T06:01:54;1.00;;;1.00;;
15289;SDS011;7746;50.554;7.108;2023-03-01T06:04:21;1.00;;;1.00;;
15289;SDS011;7746;50.554;7.108;2023-03-01T06:06:48;1.60;;;1.33;;
15289;SDS011;7746;50.554;7.108;2023-03-01T06:09:17;1.20;;;1.13;;
15289;SDS011;7746;50.554;7.108;2023-03-01T06:11:45;1.27;;;1.10;;
15289;SDS011;7746;50.554;7.108;2023-03-01T06:14:12;1.73;;;1.40;;
15289;SDS011;7746;50.554;7.108;2023-03-01T06:16:39;1.10;;;1.10;;
15289;SDS011;7746;50.554;7.108;2023-03-01T06:19:07;1.00;;;1.00;;
15289;SDS011;7746;50.554;7.108;2023-03-01T06:21:34;1.20;;;1.20;;
15289;SDS011;7746;50.554;7.108;2023-03-01T06:24:01;1.07;;;1.07;;
15289;SDS011;7746;50.554;7.108;2023-03-01T06:26:28;1.30;;;1.23;;
15289;SDS011;7746;50.554;7.108;2023-03-01T06:28:56;1.00;;;1.00;;
15289;SDS011;7746;50.554;7.108;2023-03-01T06:31:23;1.20;;;1.10;;
15289;SDS011;7746;50.554;7.108;2023-03-01T06:33:50;1.07;;;1.07;;
15289;SDS011;7746;50.554;7.108;2023-03-01T06:36:17;1.10;;;1.10;;
15289;SDS011;7746;50.554;7.108;2023-03-01T06:38:46;1.10;;;1.10;;
15289;SDS011;7746;50.554;7.108;2023-03-01T06:41:13;1.10;;;1.10;;
15289;SDS011;7746;50.554;7.108;2023-03-01T06:43:40;1.37;;;1.27;;
15289;SDS011;7746;50.554;7.108;2023-03-01T06:46:08;1.00;;;1.00;;
15289;SDS011;7746;50.554;7.108;2023-03-01T06:48:35;1.27;;;1.17;;
15289;SDS011;7746;50.554;7.108;2023-03-01T06:51:03;1.20;;;1.10;;
15289;SDS011;7746;50.554;7.108;2023-03-01T06:53:30;1.13;;;1.10;;
15289;SDS011;7746;50.554;7.108;2023-03-01T06:55:57;1.27;;;1.17;;
15289;SDS011;7746;50.554;7.108;2023-03-01T06:58:25;1.20;;;1.10;;
15289;SDS011;7746;50.554;7.108;2023-03-01T07:00:52;1.40;;;1.30;;
15289;SDS011;7746;50.554;7.108;2023-03-01T07:03:20;1.13;;;1.07;;
15289;SDS011;7746;50.554;7.108;2023-03-01T07:05:48;1.37;;;1.27;;
15289;SDS011;7746;50.554;7.108;2023-03-01T07:08:16;1.20;;;1.10;;
15289;SDS011;7746;50.554;7.108;2023-03-01T07:10:43;0.97;;;0.90;;
15289;SDS011;7746;50.554;7.108;2023-03-01T07:13:10;1.10;;;1.00;;
15289;SDS011;7746;50.554;7.108;2023-03-01T07:15:39;1.17;;;1.07;;
15289;SDS011;7746;50.554;7.108;2023-03-01T07:18:07;1.27;;;1.17;;
15289;SDS011;7746;50.554;7.108;2023-03-01T07:20:35;1.20;;;1.10;;
15289;SDS011;7746;50.554;7.108;2023-03-01T07:23:03;1.20;;;1.10;;
15289;SDS011;7746;50.554;7.108;2023-03-01T07:25:32;1.17;;;1.07;;
15289;SDS011;7746;50.554;7.108;2023-03-01T07:27:59;1.17;;;1.07;;
15289;SDS011;7746;50.554;7.108;2023-03-01T07:30:26;1.33;;;1.23;;
15289;SDS011;7746;50.554;7.108;2023-03-01T07:32:53;1.20;;;1.10;;
15289;SDS011;7746;50.554;7.108;2023-03-01T07:35:20;1.13;;;1.03;;
15289;SDS011;7746;50.554;7.108;2023-03-01T07:37:49;0.83;;;0.83;;
15289;SDS011;7746;50.554;7.108;2023-03-01T07:40:16;1.07;;;1.07;;
15289;SDS011;7746;50.554;7.108;2023-03-01T07:42:43;1.00;;;1.00;;
15289;SDS011;7746;50.554;7.108;2023-03-01T07:45:10;1.03;;;0.97;;
15289;SDS011;7746;50.554;7.108;2023-03-01T07:47:38;1.00;;;1.00;;
15289;SDS011;7746;50.554;7.108;2023-03-01T07:50:06;1.00;;;1.00;;
15289;SDS011;7746;50.554;7.108;2023-03-01T07:52:33;1.20;;;1.10;;
15289;SDS011;7746;50.554;7.108;2023-03-01T07:55:01;1.10;;;1.00;;
15289;SDS011;7746;50.554;7.108;2023-03-01T07:57:28;2.10;;;1.30;;
15289;SDS011;7746;50.554;7.108;2023-03-01T07:59:56;1.73;;;1.17;;
15289;SDS011;7746;50.554;7.108;2023-03-01T08:02:23;1.50;;;1.20;;
15289;SDS011;7746;50.554;7.108;2023-03-01T08:04:50;1.53;;;1.10;;
15289;SDS011;7746;50.554;7.108;2023-03-01T08:07:17;1.27;;;1.00;;
15289;SDS011;7746;50.554;7.108;2023-03-01T08:09:44;1.43;;;1.10;;
15289;SDS011;7746;50.554;7.108;2023-03-01T08:12:13;1.67;;;1.20;;
15289;SDS011;7746;50.554;7.108;2023-03-01T08:14:41;2.13;;;1.30;;
15289;SDS011;7746;50.554;7.108;2023-03-01T08:17:08;2.00;;;1.27;;
15289;SDS011;7746;50.554;7.108;2023-03-01T08:19:35;1.80;;;1.20;;
15289;SDS011;7746;50.554;7.108;2023-03-01T08:22:03;1.10;;;1.00;;
15289;SDS011;7746;50.554;7.108;2023-03-01T08:24:30;2.33;;;1.40;;
15289;SDS011;7746;50.554;7.108;2023-03-01T08:26:57;2.00;;;1.27;;
15289;SDS011;7746;50.554;7.108;2023-03-01T08:29:25;1.67;;;1.00;;
15289;SDS011;7746;50.554;7.108;2023-03-01T08:31:53;1.87;;;1.23;;
15289;SDS011;7746;50.554;7.108;2023-03-01T08:34:20;1.70;;;1.20;;
15289;SDS011;7746;50.554;7.108;2023-03-01T08:36:47;2.00;;;1.17;;
15289;SDS011;7746;50.554;7.108;2023-03-01T08:39:15;1.83;;;1.00;;
15289;SDS011;7746;50.554;7.108;2023-03-01T08:41:43;3.23;;;1.53;;
15289;SDS011;7746;50.554;7.108;2023-03-01T08:44:11;2.30;;;1.37;;
15289;SDS011;7746;50.554;7.108;2023-03-01T08:46:41;2.60;;;1.87;;
15289;SDS011;7746;50.554;7.108;2023-03-01T08:49:09;2.87;;;1.73;;
15289;SDS011;7746;50.554;7.108;2023-03-01T08:51:36;4.00;;;1.90;;
15289;SDS011;7746;50.554;7.108;2023-03-01T08:54:03;2.63;;;1.60;;
15289;SDS011;7746;50.554;7.108;2023-03-01T08:56:31;4.33;;;1.90;;
15289;SDS011;7746;50.554;7.108;2023-03-01T08:58:58;2.10;;;1.23;;
15289;SDS011;7746;50.554;7.108;2023-03-01T09:01:25;3.13;;;1.50;;
15289;SDS011;7746;50.554;7.108;2023-03-01T09:03:53;2.43;;;1.27;;
15289;SDS011;7746;50.554;7.108;2023-03-01T09:06:22;2.10;;;1.27;;
15289;SDS011;7746;50.554;7.108;2023-03-01T09:08:49;2.57;;;1.40;;
15289;SDS011;7746;50.554;7.108;2023-03-01T09:11:17;3.20;;;1.70;;
15289;SDS011;7746;50.554;7.108;2023-03-01T09:13:45;4.33;;;1.97;;
15289;SDS011;7746;50.554;7.108;2023-03-01T09:16:13;2.67;;;1.50;;
15289;SDS011;7746;50.554;7.108;2023-03-01T09:18:40;3.07;;;1.67;;
15289;SDS011;7746;50.554;7.108;2023-03-01T09:21:09;3.37;;;1.40;;
15289;SDS011;7746;50.554;7.108;2023-03-01T09:23:38;2.50;;;1.57;;
15289;SDS011;7746;50.554;7.108;2023-03-01T09:26:05;2.73;;;1.50;;
15289;SDS011;7746;50.554;7.108;2023-03-01T09:28:34;3.60;;;1.90;;
15289;SDS011;7746;50.554;7.108;2023-03-01T09:31:02;5.13;;;2.20;;
15289;SDS011;7746;50.554;7.108;2023-03-01T09:33:29;4.40;;;3.57;;
15289;SDS011;7746;50.554;7.108;2023-03-01T09:35:57;3.00;;;1.60;;
15289;SDS011;7746;50.554;7.108;2023-03-01T09:38:25;3.07;;;1.67;;
15289;SDS011;7746;50.554;7.108;2023-03-01T09:40:52;3.43;;;1.53;;
15289;SDS011;7746;50.554;7.108;2023-03-01T09:43:21;3.47;;;1.60;;
15289;SDS011;7746;50.554;7.108;2023-03-01T09:45:50;2.20;;;1.30;;
15289;SDS011;7746;50.554;7.108;2023-03-01T09:48:20;1.93;;;1.20;;
15289;SDS011;7746;50.554;7.108;2023-03-01T09:50:48;1.53;;;1.17;;
15289;SDS011;7746;50.554;7.108;2023-03-01T09:53:16;2.30;;;1.30;;
15289;SDS011;7746;50.554;7.108;2023-03-01T09:55:46;3.30;;;1.60;;
15289;SDS011;7746;50.554;7.108;2023-03-01T09:58:29;1.90;;;1.37;;
15289;SDS011;7746;50.554;7.108;2023-03-01T10:01:02;2.40;;;1.40;;
15289;SDS011;7746;50.554;7.108;2023-03-01T10:03:34;1.13;;;1.00;;
15289;SDS011;7746;50.554;7.108;2023-03-01T10:06:04;2.70;;;1.40;;
15289;SDS011;7746;50.554;7.108;2023-03-01T10:08:36;2.50;;;1.50;;
15289;SDS011;7746;50.554;7.108;2023-03-01T10:11:16;1.27;;;1.20;;
15289;SDS011;7746;50.554;7.108;2023-03-01T10:13:46;2.90;;;1.50;;
15289;SDS011;7746;50.554;7.108;2023-03-01T10:16:17;2.43;;;1.23;;
15289;SDS011;7746;50.554;7.108;2023-03-01T10:18:47;3.07;;;1.37;;
15289;SDS011;7746;50.554;7.108;2023-03-01T10:21:16;1.10;;;1.00;;
15289;SDS011;7746;50.554;7.108;2023-03-01T10:23:44;2.90;;;1.47;;
15289;SDS011;7746;50.554;7.108;2023-03-01T10:26:17;2.13;;;1.17;;
15289;SDS011;7746;50.554;7.108;2023-03-01T10:28:50;4.00;;;1.87;;
15289;SDS011;7746;50.554;7.108;2023-03-01T10:31:22;5.33;;;2.27;;
15289;SDS011;7746;50.554;7.108;2023-03-01T10:33:53;3.67;;;1.90;;
15289;SDS011;7746;50.554;7.108;2023-03-01T10:36:22;4.40;;;1.97;;
15289;SDS011;7746;50.554;7.108;2023-03-01T10:38:49;4.47;;;2.43;;
15289;SDS011;7746;50.554;7.108;2023-03-01T10:41:20;5.30;;;2.80;;
15289;SDS011;7746;50.554;7.108;2023-03-01T10:43:49;3.87;;;2.57;;
15289;SDS011;7746;50.554;7.108;2023-03-01T10:46:22;5.43;;;2.63;;
15289;SDS011;7746;50.554;7.108;2023-03-01T10:49:00;4.73;;;2.90;;
15289;SDS011;7746;50.554;7.108;2023-03-01T10:51:32;3.90;;;2.80;;
15289;SDS011;7746;50.554;7.108;2023-03-01T10:53:59;3.03;;;2.03;;
15289;SDS011;7746;50.554;7.108;2023-03-01T10:56:28;3.33;;;2.33;;
15289;SDS011;7746;50.554;7.108;2023-03-01T10:58:59;4.53;;;3.27;;
15289;SDS011;7746;50.554;7.108;2023-03-01T11:01:27;6.27;;;4.37;;
15289;SDS011;7746;50.554;7.108;2023-03-01T11:04:07;6.47;;;4.90;;
15289;SDS011;7746;50.554;7.108;2023-03-01T11:06:37;8.00;;;4.27;;
15289;SDS011;7746;50.554;7.108;2023-03-01T11:09:13;6.73;;;3.50;;
15289;SDS011;7746;50.554;7.108;2023-03-01T11:11:41;7.43;;;3.90;;
15289;SDS011;7746;50.554;7.108;2023-03-01T11:14:13;7.10;;;3.87;;
15289;SDS011;7746;50.554;7.108;2023-03-01T11:16:43;8.67;;;4.17;;
15289;SDS011;7746;50.554;7.108;2023-03-01T11:19:18;8.07;;;4.17;;
15289;SDS011;7746;50.554;7.108;2023-03-01T11:21:52;5.87;;;4.10;;
15289;SDS011;7746;50.554;7.108;2023-03-01T11:24:22;7.50;;;4.33;;
15289;SDS011;7746;50.554;7.108;2023-03-01T11:26:53;4.00;;;2.37;;
15289;SDS011;7746;50.554;7.108;2023-03-01T11:29:25;3.13;;;2.00;;
15289;SDS011;7746;50.554;7.108;2023-03-01T11:31:54;4.77;;;2.67;;
15289;SDS011;7746;50.554;7.108;2023-03-01T11:34:23;2.07;;;1.80;;
15289;SDS011;7746;50.554;7.108;2023-03-01T11:36:56;3.97;;;2.20;;
15289;SDS011;7746;50.554;7.108;2023-03-01T11:39:26;3.07;;;1.83;;
15289;SDS011;7746;50.554;7.108;2023-03-01T11:42:01;4.10;;;1.97;;
15289;SDS011;7746;50.554;7.108;2023-03-01T11:44:31;3.53;;;2.23;;
15289;SDS011;7746;50.554;7.108;2023-03-01T11:47:05;3.77;;;2.30;;
15289;SDS011;7746;50.554;7.108;2023-03-01T11:49:53;3.43;;;2.27;;
15289;SDS011;7746;50.554;7.108;2023-03-01T11:52:25;6.00;;;2.53;;
15289;SDS011;7746;50.554;7.108;2023-03-01T11:55:00;3.83;;;2.10;;
15289;SDS011;7746;50.554;7.108;2023-03-01T11:57:38;4.93;;;2.50;;
15289;SDS011;7746;50.554;7.108;2023-03-01T12:00:19;4.27;;;2.67;;
15289;SDS011;7746;50.554;7.108;2023-03-01T12:02:58;4.47;;;2.70;;
15289;SDS011;7746;50.554;7.108;2023-03-01T12:05:36;4.40;;;2.50;;
15289;SDS011;7746;50.554;7.108;2023-03-01T12:08:10;6.70;;;2.93;;
15289;SDS011;7746;50.554;7.108;2023-03-01T12:10:42;6.27;;;2.53;;
15289;SDS011;7746;50.554;7.108;2023-03-01T12:13:18;7.30;;;3.17;;
15289;SDS011;7746;50.554;7.108;2023-03-01T12:18:38;3.90;;;2.53;;
15289;SDS011;7746;50.554;7.108;2023-03-01T12:21:12;4.50;;;2.57;;
15289;SDS011;7746;50.554;7.108;2023-03-01T12:26:28;6.70;;;4.17;;
15289;SDS011;7746;50.554;7.108;2023-03-01T12:29:05;4.23;;;2.93;;
15289;SDS011;7746;50.554;7.108;2023-03-01T12:34:26;8.40;;;5.97;;
15289;SDS011;7746;50.554;7.108;2023-03-01T12:37:03;12.87;;;6.93;;
15289;SDS011;7746;50.554;7.108;2023-03-01T12:39:39;8.83;;;5.53;;
15289;SDS011;7746;50.554;7.108;2023-03-01T12:42:11;7.70;;;5.63;;
15289;SDS011;7746;50.554;7.108;2023-03-01T12:44:50;9.97;;;5.50;;
15289;SDS011;7746;50.554;7.108;2023-03-01T12:47:25;7.17;;;5.00;;
15289;SDS011;7746;50.554;7.108;2023-03-01T12:49:54;10.50;;;5.80;;
15289;SDS011;7746;50.554;7.108;2023-03-01T12:52:23;7.80;;;6.30;;
15289;SDS011;7746;50.554;7.108;2023-03-01T12:54:51;8.63;;;4.87;;
15289;SDS011;7746;50.554;7.108;2023-03-01T12:57:21;9.60;;;5.13;;
15289;SDS011;7746;50.554;7.108;2023-03-01T12:59:59;12.43;;;5.53;;
15289;SDS011;7746;50.554;7.108;2023-03-01T13:02:33;8.70;;;4.47;;
15289;SDS011;7746;50.554;7.108;2023-03-01T13:05:10;10.13;;;5.47;;
15289;SDS011;7746;50.554;7.108;2023-03-01T13:07:44;12.37;;;6.10;;
15289;SDS011;7746;50.554;7.108;2023-03-01T13:10:17;9.03;;;4.80;;
15289;SDS011;7746;50.554;7.108;2023-03-01T13:12:51;14.53;;;5.93;;
15289;SDS011;7746;50.554;7.108;2023-03-01T13:15:31;11.87;;;5.77;;
15289;SDS011;7746;50.554;7.108;2023-03-01T13:17:59;11.43;;;5.70;;
15289;SDS011;7746;50.554;7.108;2023-03-01T13:20:29;5.27;;;3.63;;
15289;SDS011;7746;50.554;7.108;2023-03-01T13:23:00;11.30;;;6.53;;
15289;SDS011;7746;50.554;7.108;2023-03-01T13:25:28;7.67;;;5.07;;
15289;SDS011;7746;50.554;7.108;2023-03-01T13:28:32;10.77;;;5.70;;
15289;SDS011;7746;50.554;7.108;2023-03-01T13:30:52;12.00;;;6.10;;
15289;SDS011;7746;50.554;7.108;2023-03-01T13:36:05;13.93;;;6.17;;
15289;SDS011;7746;50.554;7.108;2023-03-01T13:38:37;11.57;;;4.83;;
15289;SDS011;7746;50.554;7.108;2023-03-01T13:41:06;12.30;;;5.10;;
15289;SDS011;7746;50.554;7.108;2023-03-01T13:43:34;12.40;;;5.33;;
15289;SDS011;7746;50.554;7.108;2023-03-01T13:46:07;13.57;;;6.80;;
15289;SDS011;7746;50.554;7.108;2023-03-01T13:48:35;12.17;;;4.83;;
15289;SDS011;7746;50.554;7.108;2023-03-01T13:51:04;11.37;;;5.23;;
15289;SDS011;7746;50.554;7.108;2023-03-01T13:53:33;10.40;;;5.20;;
15289;SDS011;7746;50.554;7.108;2023-03-01T13:56:03;12.37;;;5.47;;
15289;SDS011;7746;50.554;7.108;2023-03-01T13:58:43;14.73;;;7.77;;
15289;SDS011;7746;50.554;7.108;2023-03-01T14:01:20;14.83;;;6.33;;
15289;SDS011;7746;50.554;7.108;2023-03-01T14:03:47;11.40;;;5.27;;
15289;SDS011;7746;50.554;7.108;2023-03-01T14:06:15;10.27;;;5.40;;
15289;SDS011;7746;50.554;7.108;2023-03-01T14:08:46;13.13;;;6.73;;
15289;SDS011;7746;50.554;7.108;2023-03-01T14:11:20;15.10;;;6.23;;
15289;SDS011;7746;50.554;7.108;2023-03-01T14:13:51;9.73;;;8.13;;
15289;SDS011;7746;50.554;7.108;2023-03-01T14:16:27;10.87;;;5.70;;
15289;SDS011;7746;50.554;7.108;2023-03-01T14:19:00;13.33;;;5.63;;
15289;SDS011;7746;50.554;7.108;2023-03-01T14:21:29;8.57;;;4.93;;
15289;SDS011;7746;50.554;7.108;2023-03-01T14:23:56;14.27;;;7.93;;
15289;SDS011;7746;50.554;7.108;2023-03-01T14:26:24;10.77;;;5.23;;
15289;SDS011;7746;50.554;7.108;2023-03-01T14:28:51;9.53;;;5.63;;
15289;SDS011;7746;50.554;7.108;2023-03-01T14:31:34;11.67;;;5.13;;
15289;SDS011;7746;50.554;7.108;2023-03-01T14:34:02;12.13;;;6.40;;
15289;SDS011;7746;50.554;7.108;2023-03-01T14:36:31;15.33;;;6.63;;
15289;SDS011;7746;50.554;7.108;2023-03-01T14:38:58;23.47;;;7.17;;
15289;SDS011;7746;50.554;7.108;2023-03-01T14:41:31;21.43;;;6.70;;
15289;SDS011;7746;50.554;7.108;2023-03-01T14:44:00;20.83;;;7.33;;
15289;SDS011;7746;50.554;7.108;2023-03-01T14:46:28;17.60;;;5.97;;
15289;SDS011;7746;50.554;7.108;2023-03-01T14:49:00;25.90;;;8.07;;
15289;SDS011;7746;50.554;7.108;2023-03-01T14:51:29;30.70;;;9.13;;
15289;SDS011;7746;50.554;7.108;2023-03-01T14:53:56;23.90;;;9.17;;
15289;SDS011;7746;50.554;7.108;2023-03-01T14:56:23;21.27;;;6.97;;
15289;SDS011;7746;50.554;7.108;2023-03-01T14:58:51;52.63;;;12.40;;
15289;SDS011;7746;50.554;7.108;2023-03-01T15:01:18;18.83;;;6.70;;
15289;SDS011;7746;50.554;7.108;2023-03-01T15:03:47;27.70;;;15.67;;
15289;SDS011;7746;50.554;7.108;2023-03-01T15:06:17;21.10;;;6.63;;
15289;SDS011;7746;50.554;7.108;2023-03-01T15:08:46;19.23;;;6.27;;
15289;SDS011;7746;50.554;7.108;2023-03-01T15:11:18;25.10;;;7.30;;
15289;SDS011;7746;50.554;7.108;2023-03-01T15:13:48;34.57;;;9.57;;
15289;SDS011;7746;50.554;7.108;2023-03-01T15:16:15;24.93;;;8.60;;
15289;SDS011;7746;50.554;7.108;2023-03-01T15:18:44;22.20;;;6.67;;
15289;SDS011;7746;50.554;7.108;2023-03-01T15:21:17;13.80;;;5.73;;
15289;SDS011;7746;50.554;7.108;2023-03-01T15:23:48;24.40;;;7.17;;